Terminal Aerodrome Forecast
Issued by NWS

Home | Current Version | Previous Version | Text Only | Print | Product List | Glossary On
Versions: 1 2 3 4 5 6 7 8 9 10 11 12 13 14 15 16 17 18 19 20 21 22 23 24 25 26 27 28 29 30 31
000
FTAK31 PANC 111731
TAFAIL
TAF
PAIL 111731Z 1118/1218 VRB05KT P6SM -SHRA OVC060
     FM120000 10012G20KT P6SM -SHRA SCT030 OVC050
     FM121200 10011KT P6SM VCSH SCT040 OVC060=

USA.gov is the U.S. government's official web portal to all federal, state and local government web resources and services.